Terminal Aerodrome Forecast
Issued by NWS

Home | Current Version | Previous Version | Text Only | Print | Product List | Glossary On
Versions: 1 2 3 4 5 6 7 8 9 10 11 12 13 14 15 16 17 18 19 20 21 22
287
FTUS46 KLOX 271122
TAFBUR
TAF
KBUR 271122Z 2712/2812 11006KT P6SM SCT200 WS010/35030KT
     FM271500 35012KT P6SM SCT200
     FM272200 15008KT P6SM SCT200
     FM280300 35010KT P6SM SCT200=

USA.gov is the U.S. government's official web portal to all federal, state and local government web resources and services.